createdAt,value
2017-03-22T00:00:17.853Z,0
2017-03-22T00:00:58.382Z,0
2017-03-22T00:01:38.896Z,0
2017-03-22T00:02:19.431Z,0
2017-03-22T00:02:59.963Z,0
2017-03-22T00:03:40.480Z,0
2017-03-22T00:04:20.997Z,0
2017-03-22T00:05:01.523Z,0
2017-03-22T00:05:42.062Z,0
2017-03-22T00:06:22.581Z,0
2017-03-22T00:07:03.092Z,0
2017-03-22T00:07:43.621Z,0
2017-03-22T00:08:24.136Z,0
2017-03-22T00:09:04.660Z,0
2017-03-22T00:09:45.168Z,0
2017-03-22T00:10:25.693Z,0
2017-03-22T00:11:06.201Z,0
2017-03-22T00:11:46.724Z,0
2017-03-22T00:12:27.251Z,0
2017-03-22T00:13:07.776Z,0
2017-03-22T00:13:48.314Z,0
2017-03-22T00:14:28.827Z,0
2017-03-22T00:15:09.357Z,0
2017-03-22T00:15:49.879Z,0
2017-03-22T00:16:30.390Z,0
2017-03-22T00:17:10.904Z,0
2017-03-22T00:17:51.414Z,0
2017-03-22T00:18:31.942Z,0
2017-03-22T00:19:12.483Z,0
2017-03-22T00:19:53.012Z,0
2017-03-22T00:20:33.520Z,0
2017-03-22T00:21:14.041Z,0
2017-03-22T00:21:54.557Z,0
2017-03-22T00:22:35.069Z,0
2017-03-22T00:23:15.587Z,0
2017-03-22T00:23:56.105Z,0
2017-03-22T00:24:36.627Z,0
2017-03-22T00:25:17.136Z,0
2017-03-22T00:25:57.656Z,0
2017-03-22T00:26:38.158Z,0
2017-03-22T00:27:18.677Z,0
2017-03-22T00:27:59.204Z,0
2017-03-22T00:28:39.707Z,0
2017-03-22T00:29:20.234Z,0
2017-03-22T00:30:00.751Z,0
2017-03-22T00:30:41.295Z,0
2017-03-22T00:31:21.821Z,0
2017-03-22T00:32:02.343Z,0
2017-03-22T00:32:42.870Z,0
2017-03-22T00:33:23.406Z,0
2017-03-22T00:34:03.929Z,0
2017-03-22T00:34:44.452Z,0
2017-03-22T00:35:24.989Z,0
2017-03-22T00:36:05.517Z,0
2017-03-22T00:36:46.032Z,0
2017-03-22T00:37:26.554Z,0
2017-03-22T00:38:07.082Z,0
2017-03-22T00:38:47.598Z,0
2017-03-22T00:39:28.112Z,0
2017-03-22T00:40:08.628Z,0
2017-03-22T00:40:49.147Z,0
2017-03-22T00:41:29.670Z,0
2017-03-22T00:42:10.194Z,0
2017-03-22T00:42:50.774Z,0
2017-03-22T00:43:31.224Z,0
2017-03-22T00:44:11.736Z,0
2017-03-22T00:44:52.276Z,0
2017-03-22T00:45:32.796Z,0
2017-03-22T00:46:13.372Z,0
2017-03-22T00:46:53.846Z,0
2017-03-22T00:47:34.374Z,0
2017-03-22T00:48:14.875Z,0
2017-03-22T00:48:55.394Z,0
2017-03-22T00:49:35.912Z,0
2017-03-22T00:50:16.433Z,0
2017-03-22T00:50:56.969Z,0
2017-03-22T00:51:37.493Z,0
2017-03-22T00:52:17.999Z,0
2017-03-22T00:52:58.534Z,0
2017-03-22T00:53:39.043Z,0
2017-03-22T00:54:19.557Z,0
2017-03-22T00:55:00.065Z,0
2017-03-22T00:55:40.584Z,0
2017-03-22T00:56:21.089Z,0
2017-03-22T00:57:01.598Z,0
2017-03-22T00:57:42.113Z,0
2017-03-22T00:58:22.634Z,0
2017-03-22T00:59:03.155Z,0
2017-03-22T00:59:43.676Z,0
2017-03-22T01:00:24.195Z,0
2017-03-22T01:01:04.696Z,0
2017-03-22T01:01:45.197Z,0
2017-03-22T01:02:25.707Z,0
2017-03-22T01:03:06.230Z,0
2017-03-22T01:03:46.735Z,0
2017-03-22T01:04:27.258Z,0
2017-03-22T01:05:07.757Z,0
2017-03-22T01:05:48.265Z,0
2017-03-22T01:06:28.791Z,0
2017-03-22T01:07:09.309Z,0
2017-03-22T01:07:49.835Z,0
2017-03-22T01:08:30.361Z,0
2017-03-22T01:09:10.894Z,0
2017-03-22T01:09:51.415Z,0
2017-03-22T01:10:31.918Z,0
2017-03-22T01:11:12.434Z,0
2017-03-22T01:11:52.958Z,0
2017-03-22T01:12:33.472Z,0
2017-03-22T01:13:13.993Z,0
2017-03-22T01:13:54.517Z,0
2017-03-22T01:14:35.021Z,0
2017-03-22T01:15:15.544Z,0
2017-03-22T01:15:56.109Z,0
2017-03-22T01:16:36.637Z,0
2017-03-22T01:17:17.160Z,0
2017-03-22T01:17:57.668Z,0
2017-03-22T01:18:38.195Z,0
2017-03-22T01:19:18.725Z,0
2017-03-22T01:19:59.236Z,0
2017-03-22T01:20:39.767Z,0
2017-03-22T01:21:20.280Z,0
2017-03-22T01:22:00.795Z,0
2017-03-22T01:22:41.303Z,0
2017-03-22T01:23:21.837Z,0
2017-03-22T01:24:02.361Z,0
2017-03-22T01:24:42.890Z,0
2017-03-22T01:25:23.411Z,0
2017-03-22T01:26:03.946Z,0
2017-03-22T01:26:44.467Z,0
2017-03-22T01:27:24.991Z,0
2017-03-22T01:28:05.506Z,0
2017-03-22T01:28:46.016Z,0
2017-03-22T01:29:26.534Z,0
2017-03-22T01:30:07.017Z,0
2017-03-22T01:30:47.542Z,0
2017-03-22T01:31:28.078Z,0
2017-03-22T01:32:08.607Z,0
2017-03-22T01:32:49.137Z,0
2017-03-22T01:33:29.663Z,0
2017-03-22T01:34:10.166Z,0
2017-03-22T01:34:50.683Z,0
2017-03-22T01:35:31.195Z,0
2017-03-22T01:36:11.703Z,0
2017-03-22T01:36:52.212Z,0
2017-03-22T01:37:32.723Z,0
2017-03-22T01:38:13.220Z,0
2017-03-22T01:38:53.722Z,0
2017-03-22T01:39:34.228Z,0
2017-03-22T01:40:14.753Z,0
2017-03-22T01:40:55.251Z,0
2017-03-22T01:41:35.773Z,0
2017-03-22T01:42:16.303Z,0
2017-03-22T01:42:56.799Z,0
2017-03-22T01:43:37.314Z,0
2017-03-22T01:44:17.851Z,0
2017-03-22T01:44:58.353Z,0
2017-03-22T01:45:38.875Z,0
2017-03-22T01:46:19.398Z,0
2017-03-22T01:46:59.919Z,0
2017-03-22T01:47:40.448Z,0
2017-03-22T01:48:20.968Z,0
2017-03-22T01:49:01.493Z,0
2017-03-22T01:49:42.011Z,0
2017-03-22T01:50:22.524Z,0
2017-03-22T01:51:03.048Z,0
2017-03-22T01:51:43.553Z,0
2017-03-22T01:52:24.070Z,0
2017-03-22T01:53:04.573Z,0
2017-03-22T01:53:45.085Z,0
2017-03-22T01:54:25.583Z,0
2017-03-22T01:55:06.109Z,0
2017-03-22T01:55:46.622Z,0
2017-03-22T01:56:27.150Z,0
2017-03-22T01:57:07.654Z,0
2017-03-22T01:57:48.167Z,0
2017-03-22T01:58:28.683Z,0
2017-03-22T01:59:09.209Z,0
2017-03-22T01:59:49.722Z,0
2017-03-22T02:00:30.245Z,0
2017-03-22T02:01:10.754Z,0
2017-03-22T02:01:51.299Z,0
2017-03-22T02:02:31.819Z,0
2017-03-22T02:03:12.338Z,0
2017-03-22T02:03:52.859Z,0
2017-03-22T02:04:33.405Z,0
2017-03-22T02:05:13.925Z,0
2017-03-22T02:05:54.453Z,0
2017-03-22T02:06:34.999Z,0
2017-03-22T02:07:15.508Z,0
2017-03-22T02:07:56.041Z,0
2017-03-22T02:08:36.590Z,0
2017-03-22T02:09:17.120Z,0
2017-03-22T02:09:57.642Z,0
2017-03-22T02:10:38.158Z,0
2017-03-22T02:11:18.696Z,0
2017-03-22T02:11:59.218Z,0
2017-03-22T02:12:39.725Z,0
2017-03-22T02:13:20.255Z,0
2017-03-22T02:14:00.772Z,0
2017-03-22T02:14:41.281Z,0
2017-03-22T02:15:21.801Z,0
2017-03-22T02:16:02.314Z,0
2017-03-22T02:16:42.840Z,0
2017-03-22T02:17:23.355Z,0
2017-03-22T02:18:03.891Z,0
2017-03-22T02:18:44.423Z,0
2017-03-22T02:19:24.926Z,0
2017-03-22T02:20:05.451Z,0
2017-03-22T02:20:45.967Z,0
2017-03-22T02:21:26.492Z,0
2017-03-22T02:22:07.009Z,0
2017-03-22T02:22:47.524Z,0
2017-03-22T02:23:28.063Z,0
2017-03-22T02:24:08.590Z,0
2017-03-22T02:24:49.095Z,0
2017-03-22T02:25:29.616Z,0
2017-03-22T02:26:10.158Z,0
2017-03-22T02:26:50.690Z,0
2017-03-22T02:27:31.204Z,0
2017-03-22T02:28:11.729Z,0
2017-03-22T02:28:52.265Z,0
2017-03-22T02:29:32.807Z,0
2017-03-22T02:30:13.324Z,0
2017-03-22T02:30:53.845Z,0
2017-03-22T02:31:34.369Z,0
2017-03-22T02:32:14.861Z,0
2017-03-22T02:32:55.380Z,0
2017-03-22T02:33:35.855Z,0
2017-03-22T02:34:16.407Z,0
2017-03-22T02:34:56.908Z,0
2017-03-22T02:35:37.442Z,0
2017-03-22T02:36:17.966Z,0
2017-03-22T02:37:05.345Z,0
2017-03-22T02:37:45.889Z,0
2017-03-22T02:38:26.412Z,0
2017-03-22T02:39:06.924Z,0
2017-03-22T02:39:47.447Z,0
2017-03-22T02:40:27.978Z,0
2017-03-22T02:41:08.510Z,0
2017-03-22T02:41:49.053Z,0
2017-03-22T02:42:29.599Z,0
2017-03-22T02:43:10.162Z,0
2017-03-22T02:43:50.696Z,0
2017-03-22T02:44:31.221Z,0
2017-03-22T02:45:11.776Z,0
2017-03-22T02:45:52.301Z,0
2017-03-22T02:46:32.832Z,0
2017-03-22T02:47:13.327Z,0
2017-03-22T02:47:53.892Z,0
2017-03-22T02:48:34.443Z,0
2017-03-22T02:49:14.915Z,0
2017-03-22T02:49:55.417Z,0
2017-03-22T02:50:35.943Z,0
2017-03-22T02:51:16.429Z,0
2017-03-22T02:51:56.934Z,0
2017-03-22T02:52:37.429Z,0
2017-03-22T02:53:17.912Z,0
2017-03-22T02:53:58.429Z,0
2017-03-22T02:54:38.921Z,0
2017-03-22T02:55:19.435Z,0
2017-03-22T02:55:59.986Z,0
2017-03-22T02:56:40.484Z,0
2017-03-22T02:57:21.013Z,0
2017-03-22T02:58:01.585Z,0
2017-03-22T02:58:42.141Z,0
2017-03-22T02:59:22.679Z,0
2017-03-22T03:00:03.249Z,0
2017-03-22T03:00:43.767Z,0
2017-03-22T03:01:24.318Z,0
2017-03-22T03:02:04.818Z,0
2017-03-22T03:02:45.321Z,0
2017-03-22T03:03:25.812Z,0
2017-03-22T03:04:06.320Z,0
2017-03-22T03:04:46.934Z,0
2017-03-22T03:05:27.473Z,0
2017-03-22T03:06:08.004Z,0
2017-03-22T03:06:48.529Z,0
2017-03-22T03:07:29.092Z,0
2017-03-22T03:08:09.643Z,0
2017-03-22T03:08:50.175Z,0
2017-03-22T03:09:30.697Z,0
2017-03-22T03:10:11.189Z,0
2017-03-22T03:10:51.738Z,0
2017-03-22T03:11:32.271Z,0
2017-03-22T03:12:12.788Z,0
2017-03-22T03:12:53.342Z,0
2017-03-22T03:13:33.907Z,0
2017-03-22T03:14:14.467Z,0
2017-03-22T03:14:55.015Z,0
2017-03-22T03:15:35.524Z,0
2017-03-22T03:16:16.023Z,0
2017-03-22T03:16:56.559Z,0
2017-03-22T03:17:37.060Z,0
2017-03-22T03:18:17.565Z,0
2017-03-22T03:18:58.126Z,0
2017-03-22T03:19:38.612Z,0
2017-03-22T03:20:19.119Z,0
2017-03-22T03:20:59.624Z,0
2017-03-22T03:21:40.145Z,0
2017-03-22T03:22:20.691Z,0
2017-03-22T03:23:01.190Z,0
2017-03-22T03:23:41.727Z,0
2017-03-22T03:24:22.226Z,0
2017-03-22T03:25:02.794Z,0
2017-03-22T03:25:43.330Z,0
2017-03-22T03:26:23.827Z,0
2017-03-22T03:27:04.373Z,0
2017-03-22T03:27:44.862Z,0
2017-03-22T03:28:25.395Z,0
2017-03-22T03:29:05.911Z,0
2017-03-22T03:29:46.409Z,0
2017-03-22T03:30:26.950Z,0
2017-03-22T03:31:07.448Z,0
2017-03-22T03:31:47.959Z,0
2017-03-22T03:32:28.467Z,0
2017-03-22T03:33:08.962Z,0
2017-03-22T03:33:49.483Z,0
2017-03-22T03:34:29.932Z,0
2017-03-22T03:35:10.467Z,0
2017-03-22T03:35:50.988Z,0
2017-03-22T03:36:31.545Z,0
2017-03-22T03:37:12.071Z,0
2017-03-22T03:37:52.599Z,0
2017-03-22T03:38:33.123Z,0
2017-03-22T03:39:13.651Z,0
2017-03-22T03:39:54.221Z,0
2017-03-22T03:40:34.725Z,0
2017-03-22T03:41:15.271Z,0
2017-03-22T03:41:55.818Z,0
2017-03-22T03:42:36.357Z,0
2017-03-22T03:43:16.870Z,0
2017-03-22T03:43:57.374Z,0
2017-03-22T03:44:37.885Z,0
2017-03-22T03:45:18.404Z,0
2017-03-22T03:45:58.911Z,0
2017-03-22T03:46:39.446Z,0
2017-03-22T03:47:19.983Z,0
2017-03-22T03:48:00.532Z,0
2017-03-22T03:48:41.065Z,0
2017-03-22T03:49:21.541Z,0
2017-03-22T03:50:02.061Z,0
2017-03-22T03:50:42.583Z,0
2017-03-22T03:51:23.131Z,0
2017-03-22T03:52:03.714Z,0
2017-03-22T03:52:44.268Z,0
2017-03-22T03:53:24.821Z,0
2017-03-22T03:54:05.380Z,0
2017-03-22T03:54:45.901Z,0
2017-03-22T03:55:26.414Z,0
2017-03-22T03:56:06.925Z,0
2017-03-22T03:56:47.429Z,0
2017-03-22T03:57:27.973Z,0
2017-03-22T03:58:08.507Z,0
2017-03-22T03:58:49.054Z,0
2017-03-22T03:59:29.591Z,0
2017-03-22T04:00:10.149Z,0
2017-03-22T04:00:50.699Z,0
2017-03-22T04:01:31.269Z,0
2017-03-22T04:02:11.784Z,0
2017-03-22T04:02:52.315Z,0
2017-03-22T04:03:32.823Z,0
2017-03-22T04:04:13.340Z,0
2017-03-22T04:04:53.824Z,0
2017-03-22T04:05:34.344Z,0
2017-03-22T04:06:14.832Z,0
2017-03-22T04:06:55.360Z,0
2017-03-22T04:07:35.920Z,0
2017-03-22T04:08:16.422Z,0
2017-03-22T04:08:56.971Z,0
2017-03-22T04:09:37.476Z,0
2017-03-22T04:10:18.008Z,0
2017-03-22T04:10:58.512Z,0
2017-03-22T04:11:39.016Z,0
2017-03-22T04:12:19.549Z,0
2017-03-22T04:13:00.078Z,0
2017-03-22T04:13:40.613Z,0
2017-03-22T04:14:21.123Z,0
2017-03-22T04:15:01.654Z,0
2017-03-22T04:15:42.169Z,0
2017-03-22T04:16:22.703Z,0
2017-03-22T04:17:03.238Z,0
2017-03-22T04:17:43.764Z,0
2017-03-22T04:18:24.299Z,0
2017-03-22T04:19:04.833Z,0
2017-03-22T04:19:45.348Z,0
2017-03-22T04:20:25.862Z,0
2017-03-22T04:21:06.379Z,0
2017-03-22T04:21:46.915Z,0
2017-03-22T04:22:27.434Z,0
2017-03-22T04:23:07.957Z,0
2017-03-22T04:23:48.467Z,0
2017-03-22T04:24:28.979Z,0
2017-03-22T04:25:09.622Z,0
2017-03-22T04:25:50.134Z,0
2017-03-22T04:26:30.665Z,0
2017-03-22T04:27:11.234Z,0
2017-03-22T04:27:51.769Z,0
2017-03-22T04:28:32.304Z,0
2017-03-22T04:29:12.823Z,0
2017-03-22T04:29:53.336Z,0
2017-03-22T04:30:33.833Z,0
2017-03-22T04:31:14.356Z,0
2017-03-22T04:31:54.870Z,0
2017-03-22T04:32:35.377Z,0
2017-03-22T04:33:15.907Z,0
2017-03-22T04:33:56.418Z,0
2017-03-22T04:34:36.939Z,0
2017-03-22T04:35:17.448Z,0
2017-03-22T04:35:57.994Z,0
2017-03-22T04:36:38.496Z,0
2017-03-22T04:37:19.000Z,0
2017-03-22T04:37:59.543Z,0
2017-03-22T04:38:40.094Z,0
2017-03-22T04:39:20.618Z,0
2017-03-22T04:40:01.149Z,0
2017-03-22T04:40:41.676Z,0
2017-03-22T04:41:22.176Z,0
2017-03-22T04:42:02.723Z,0
2017-03-22T04:42:43.245Z,0
2017-03-22T04:43:23.770Z,0
2017-03-22T04:44:04.410Z,0
2017-03-22T04:44:44.912Z,0
2017-03-22T04:45:25.436Z,0
2017-03-22T04:46:06.006Z,0
2017-03-22T04:46:46.539Z,0
2017-03-22T04:47:27.081Z,0
2017-03-22T04:48:07.636Z,0
2017-03-22T04:48:49.062Z,0
2017-03-22T04:49:29.688Z,0
2017-03-22T04:50:10.290Z,0
2017-03-22T04:50:50.820Z,0
2017-03-22T04:51:31.423Z,0
2017-03-22T04:52:11.964Z,0
2017-03-22T04:52:52.499Z,0
2017-03-22T04:53:33.049Z,0
2017-03-22T04:54:13.636Z,0
2017-03-22T04:54:54.142Z,0
2017-03-22T04:57:28.781Z,0
2017-03-22T04:58:09.252Z,0
2017-03-22T04:58:49.777Z,0
2017-03-22T04:59:30.327Z,0
2017-03-22T05:00:11.411Z,0
2017-03-22T05:00:51.927Z,0
2017-03-22T05:01:32.505Z,0
2017-03-22T05:02:13.138Z,0
2017-03-22T05:02:53.936Z,0
2017-03-22T05:03:36.821Z,0
2017-03-22T05:04:17.605Z,0
2017-03-22T05:04:58.232Z,0
2017-03-22T05:05:38.929Z,0
2017-03-22T05:06:19.440Z,0
2017-03-22T05:06:59.983Z,4
2017-03-22T05:07:40.507Z,4
2017-03-22T05:08:21.039Z,4
2017-03-22T05:09:01.652Z,0
2017-03-22T05:09:42.225Z,4
2017-03-22T05:10:22.923Z,4
2017-03-22T05:11:03.489Z,4
2017-03-22T05:11:44.044Z,4
2017-03-22T05:12:24.565Z,4
2017-03-22T05:13:05.153Z,8
2017-03-22T05:13:46.095Z,8
2017-03-22T05:14:26.648Z,8
2017-03-22T05:15:07.228Z,8
2017-03-22T05:15:47.720Z,12
2017-03-22T05:16:28.285Z,12
2017-03-22T05:17:08.758Z,12
2017-03-22T05:17:49.307Z,16
2017-03-22T05:18:29.837Z,16
2017-03-22T05:19:10.418Z,16
2017-03-22T05:19:51.818Z,20
2017-03-22T05:20:32.396Z,20
2017-03-22T05:21:12.910Z,24
2017-03-22T05:21:53.564Z,24
2017-03-22T05:22:34.108Z,24
2017-03-22T05:23:14.697Z,32
2017-03-22T05:23:55.229Z,32
2017-03-22T05:24:35.765Z,36
2017-03-22T05:25:16.279Z,36
2017-03-22T05:25:56.775Z,40
2017-03-22T05:26:37.296Z,44
2017-03-22T05:27:17.845Z,48
2017-03-22T05:27:58.399Z,48
2017-03-22T05:28:38.955Z,52
2017-03-22T05:29:19.509Z,56
2017-03-22T05:30:00.076Z,60
2017-03-22T05:30:40.713Z,64
2017-03-22T05:31:21.320Z,64
2017-03-22T05:32:01.880Z,68
2017-03-22T05:32:42.535Z,72
2017-03-22T05:33:23.170Z,76
2017-03-22T05:34:03.744Z,76
2017-03-22T05:34:44.228Z,84
2017-03-22T05:35:24.798Z,84
2017-03-22T05:36:05.302Z,92
2017-03-22T05:36:45.879Z,96
2017-03-22T05:37:26.338Z,100
2017-03-22T05:38:06.842Z,108
2017-03-22T05:38:47.335Z,112
2017-03-22T05:39:27.864Z,120
2017-03-22T05:40:08.398Z,132
2017-03-22T05:40:48.991Z,144
2017-03-22T05:41:29.518Z,156
2017-03-22T05:42:10.057Z,164
2017-03-22T05:42:50.525Z,176
2017-03-22T05:43:31.055Z,184
2017-03-22T05:44:11.601Z,192
2017-03-22T05:44:53.016Z,200
2017-03-22T05:45:33.542Z,208
2017-03-22T05:46:14.156Z,220
2017-03-22T05:46:54.672Z,236
2017-03-22T05:47:35.271Z,240
2017-03-22T05:48:15.839Z,248
2017-03-22T05:48:56.420Z,256
2017-03-22T05:49:37.765Z,264
2017-03-22T05:50:18.335Z,276
2017-03-22T05:50:58.916Z,284
2017-03-22T05:51:39.462Z,296
2017-03-22T05:52:20.017Z,308
2017-03-22T05:53:00.576Z,324
2017-03-22T05:53:41.168Z,340
2017-03-22T05:54:21.719Z,364
2017-03-22T05:55:02.305Z,384
2017-03-22T05:55:42.892Z,396
2017-03-22T05:56:23.466Z,404
2017-03-22T05:57:04.037Z,412
2017-03-22T05:57:44.715Z,436
2017-03-22T05:58:25.362Z,460
2017-03-22T05:59:05.953Z,476
2017-03-22T05:59:46.761Z,492
2017-03-22T06:00:27.375Z,508
2017-03-22T06:01:07.962Z,532
2017-03-22T06:01:48.567Z,568
2017-03-22T06:02:29.082Z,592
2017-03-22T06:03:09.793Z,592
2017-03-22T06:03:50.281Z,596
2017-03-22T06:04:30.801Z,636
2017-03-22T06:05:11.375Z,668
2017-03-22T06:05:51.879Z,684
2017-03-22T06:06:32.564Z,704
2017-03-22T06:07:13.242Z,716
2017-03-22T06:07:53.820Z,744
2017-03-22T06:08:34.520Z,784
2017-03-22T06:09:15.153Z,820
2017-03-22T06:09:55.901Z,852
2017-03-22T06:10:36.590Z,868
2017-03-22T06:11:17.195Z,880
2017-03-22T06:11:57.900Z,908
2017-03-22T06:12:38.412Z,928
2017-03-22T06:13:18.949Z,952
2017-03-22T06:13:59.440Z,972
2017-03-22T06:14:39.990Z,988
2017-03-22T06:15:20.475Z,996
2017-03-22T06:16:00.991Z,1024
2017-03-22T06:16:41.549Z,1044
2017-03-22T06:17:22.116Z,1056
2017-03-22T06:18:02.619Z,1056
2017-03-22T06:18:43.157Z,1092
2017-03-22T06:19:23.629Z,1124
2017-03-22T06:20:05.045Z,1116
2017-03-22T06:20:45.554Z,1156
2017-03-22T06:21:26.076Z,1212
2017-03-22T06:22:06.583Z,1260
2017-03-22T06:22:47.111Z,1296
2017-03-22T06:23:27.626Z,1332
2017-03-22T06:24:08.143Z,1376
2017-03-22T06:24:48.670Z,1404
2017-03-22T06:25:29.190Z,1436
2017-03-22T06:26:09.698Z,1456
2017-03-22T06:26:50.221Z,1512
2017-03-22T06:27:30.735Z,1544
2017-03-22T06:28:11.251Z,1600
2017-03-22T06:28:51.754Z,1648
2017-03-22T06:29:32.268Z,1696
2017-03-22T06:30:12.818Z,1712
2017-03-22T06:30:53.307Z,1736
2017-03-22T06:31:33.837Z,1768
2017-03-22T06:32:14.358Z,1800
2017-03-22T06:32:54.888Z,1796
2017-03-22T06:33:35.387Z,1788
2017-03-22T06:34:15.898Z,1772
2017-03-22T06:34:56.404Z,1720
2017-03-22T06:35:37.520Z,1708
2017-03-22T06:36:18.040Z,1704
2017-03-22T06:36:58.547Z,1668
2017-03-22T06:37:39.994Z,1668
2017-03-22T06:38:20.515Z,1632
2017-03-22T06:39:01.020Z,1608
2017-03-22T06:39:41.509Z,1580
2017-03-22T06:40:22.021Z,1540
2017-03-22T06:41:02.522Z,1504
2017-03-22T06:41:43.082Z,1532
2017-03-22T06:42:23.560Z,1576
2017-03-22T06:43:04.074Z,1656
2017-03-22T06:43:44.596Z,1720
2017-03-22T06:44:25.108Z,1776
2017-03-22T06:45:05.597Z,1844
2017-03-22T06:45:46.125Z,1884
2017-03-22T06:46:26.645Z,1928
2017-03-22T06:47:07.152Z,1964
2017-03-22T06:47:47.654Z,2036
2017-03-22T06:48:28.961Z,2076
2017-03-22T06:49:09.667Z,2188
2017-03-22T06:49:50.193Z,2268
2017-03-22T06:50:30.703Z,2304
2017-03-22T06:51:11.230Z,2364
2017-03-22T06:51:51.738Z,2400
2017-03-22T06:52:32.258Z,2472
2017-03-22T06:53:12.765Z,2532
2017-03-22T06:53:53.312Z,2536
2017-03-22T06:54:33.783Z,2496
2017-03-22T06:55:14.297Z,2512
2017-03-22T06:55:54.823Z,2624
2017-03-22T06:56:35.344Z,2656
2017-03-22T06:57:15.843Z,2700
2017-03-22T06:57:56.348Z,2780
2017-03-22T06:58:36.877Z,2852
2017-03-22T06:59:17.372Z,2884
2017-03-22T06:59:57.892Z,2960
2017-03-22T07:00:38.415Z,3000
2017-03-22T07:01:18.921Z,3048
2017-03-22T07:01:59.475Z,3096
2017-03-22T07:02:40.028Z,3156
2017-03-22T07:03:20.796Z,3216
2017-03-22T07:04:01.389Z,3236
2017-03-22T07:04:41.896Z,3236
2017-03-22T07:05:22.403Z,3268
2017-03-22T07:06:02.920Z,3228
2017-03-22T07:06:43.430Z,3256
2017-03-22T07:07:23.959Z,3284
2017-03-22T07:08:04.469Z,3292
2017-03-22T07:08:44.967Z,3248
2017-03-22T07:09:25.509Z,3220
2017-03-22T07:10:06.015Z,3252
2017-03-22T07:10:46.501Z,3240
2017-03-22T07:11:27.032Z,3212
2017-03-22T07:12:07.552Z,3208
2017-03-22T07:12:48.271Z,3196
2017-03-22T07:13:28.822Z,3152
2017-03-22T07:14:09.339Z,3136
2017-03-22T07:14:49.905Z,3152
2017-03-22T07:15:30.434Z,3104
2017-03-22T07:16:10.936Z,3084
2017-03-22T07:16:51.456Z,3040
2017-03-22T07:17:31.975Z,2980
2017-03-22T07:18:12.492Z,2912
2017-03-22T07:18:53.013Z,2912
2017-03-22T07:19:33.515Z,2880
2017-03-22T07:20:14.032Z,2868
2017-03-22T07:20:54.545Z,2808
2017-03-22T07:21:35.064Z,2760
2017-03-22T07:22:15.589Z,2768
2017-03-22T07:22:56.104Z,2780
2017-03-22T07:23:36.609Z,2760
2017-03-22T07:24:17.141Z,2744
2017-03-22T07:24:57.657Z,2724
2017-03-22T07:25:38.144Z,2708
2017-03-22T07:26:18.652Z,2720
2017-03-22T07:26:59.197Z,2728
2017-03-22T07:27:39.690Z,2764
2017-03-22T07:28:20.198Z,2780
2017-03-22T07:29:00.707Z,2796
2017-03-22T07:29:41.243Z,2792
2017-03-22T07:30:21.756Z,2796
2017-03-22T07:31:02.283Z,2768
2017-03-22T07:31:42.794Z,2764
2017-03-22T07:32:23.339Z,2748
2017-03-22T07:33:03.846Z,2736
2017-03-22T07:33:44.343Z,2704
2017-03-22T07:34:24.874Z,2672
2017-03-22T07:35:05.364Z,2604
2017-03-22T07:35:45.872Z,2568
2017-03-22T07:36:26.371Z,2580
2017-03-22T07:37:06.882Z,2724
2017-03-22T07:37:47.398Z,2728
2017-03-22T07:38:27.905Z,2724
2017-03-22T07:39:08.420Z,2688
2017-03-22T07:39:48.895Z,2668
2017-03-22T07:40:29.430Z,2656
2017-03-22T07:41:09.917Z,2636
2017-03-22T07:41:50.429Z,2640
2017-03-22T07:42:30.983Z,2544
2017-03-22T07:43:11.509Z,2500
2017-03-22T07:43:52.024Z,2512
2017-03-22T07:44:32.551Z,2552
2017-03-22T07:45:13.087Z,2576
2017-03-22T07:45:53.591Z,2640
2017-03-22T07:46:34.098Z,2704
2017-03-22T07:47:14.606Z,2736
2017-03-22T07:47:55.134Z,2760
2017-03-22T07:48:35.652Z,2772
2017-03-22T07:49:16.149Z,2772
2017-03-22T07:49:56.662Z,2748
2017-03-22T07:50:37.155Z,2728
2017-03-22T07:51:17.662Z,2744
2017-03-22T07:51:58.192Z,2756
2017-03-22T07:52:38.714Z,2756
2017-03-22T07:53:19.192Z,2768
2017-03-22T07:53:59.711Z,2780
2017-03-22T07:54:40.242Z,2788
2017-03-22T07:55:20.752Z,2784
2017-03-22T07:56:01.259Z,2768
2017-03-22T07:56:41.760Z,2728
2017-03-22T07:57:22.274Z,2720
2017-03-22T07:58:02.797Z,2724
2017-03-22T07:58:43.306Z,2724
2017-03-22T07:59:23.825Z,2736
2017-03-22T08:00:04.344Z,2748
2017-03-22T08:00:44.838Z,2720
2017-03-22T08:01:25.345Z,2708
2017-03-22T08:02:05.872Z,2716
2017-03-22T08:02:46.385Z,2684
2017-03-22T08:03:26.906Z,2700
2017-03-22T08:04:07.430Z,2716
2017-03-22T08:04:47.946Z,2716
2017-03-22T08:05:28.458Z,2712
2017-03-22T08:06:08.967Z,2712
2017-03-22T08:06:49.483Z,2712
2017-03-22T08:07:30.001Z,2720
2017-03-22T08:08:10.502Z,2708
2017-03-22T08:08:51.036Z,2708
2017-03-22T08:09:31.568Z,2736
2017-03-22T08:10:12.073Z,2760
2017-03-22T08:10:52.596Z,2784
2017-03-22T08:11:33.105Z,2812
2017-03-22T08:12:13.616Z,2832
2017-03-22T08:12:54.130Z,2840
2017-03-22T08:13:34.662Z,2828
2017-03-22T08:14:15.176Z,2840
2017-03-22T08:14:55.695Z,2884
2017-03-22T08:15:36.218Z,2928
2017-03-22T08:16:16.717Z,2844
2017-03-22T08:16:57.248Z,2868
2017-03-22T08:17:37.772Z,2980
2017-03-22T08:18:18.267Z,3228
2017-03-22T08:18:58.778Z,3460
2017-03-22T08:19:39.287Z,3664
2017-03-22T08:20:19.799Z,3916
2017-03-22T08:21:00.339Z,4188
2017-03-22T08:21:40.855Z,4420
2017-03-22T08:22:21.386Z,4616
2017-03-22T08:23:01.904Z,4768
2017-03-22T08:23:42.415Z,5300
2017-03-22T08:24:22.953Z,5836
2017-03-22T08:25:03.469Z,5324
2017-03-22T08:25:43.990Z,4996
2017-03-22T08:26:24.516Z,4840
2017-03-22T08:27:05.035Z,4588
2017-03-22T08:27:45.543Z,4488
2017-03-22T08:28:26.054Z,4348
2017-03-22T08:29:06.556Z,4240
2017-03-22T08:29:47.102Z,4180
2017-03-22T08:30:27.620Z,4112
2017-03-22T08:31:08.142Z,4024
2017-03-22T08:31:48.657Z,4024
2017-03-22T08:32:29.179Z,4104
2017-03-22T08:33:09.697Z,4252
2017-03-22T08:33:50.215Z,4504
2017-03-22T08:34:30.742Z,5484
2017-03-22T08:35:11.251Z,5960
2017-03-22T08:35:51.770Z,5600
2017-03-22T08:36:32.284Z,4628
2017-03-22T08:37:12.797Z,4348
2017-03-22T08:37:53.318Z,4364
2017-03-22T08:38:33.823Z,4432
2017-03-22T08:39:14.362Z,4564
2017-03-22T08:39:54.882Z,5104
2017-03-22T08:40:35.411Z,7992
2017-03-22T08:41:15.947Z,11984
2017-03-22T08:41:56.454Z,15112
2017-03-22T08:42:36.964Z,11428
2017-03-22T08:43:17.471Z,6632
2017-03-22T08:43:58.001Z,5716
2017-03-22T08:44:38.530Z,6028
2017-03-22T08:45:19.053Z,6524
2017-03-22T08:45:59.576Z,7624
2017-03-22T08:46:40.091Z,9420
2017-03-22T08:47:20.619Z,8180
2017-03-22T08:48:01.140Z,7464
2017-03-22T08:48:41.661Z,8608
2017-03-22T08:49:22.192Z,9808
2017-03-22T08:50:02.702Z,9952
2017-03-22T08:50:43.233Z,8404
2017-03-22T08:51:23.726Z,8264
2017-03-22T08:52:04.242Z,8420
2017-03-22T08:52:44.782Z,9548
2017-03-22T08:53:25.273Z,15036
2017-03-22T08:54:05.794Z,22720
2017-03-22T08:54:46.304Z,29152
2017-03-22T08:55:26.822Z,26880
2017-03-22T08:56:07.398Z,20576
2017-03-22T08:56:47.912Z,11840
2017-03-22T08:57:28.482Z,12212
2017-03-22T08:58:08.975Z,13148
2017-03-22T08:58:49.484Z,10476
2017-03-22T08:59:30.730Z,9344
2017-03-22T09:00:11.236Z,8608
2017-03-22T09:00:51.749Z,7900
2017-03-22T09:01:32.283Z,7524
2017-03-22T09:02:12.801Z,7356
2017-03-22T09:02:53.294Z,7048
2017-03-22T09:03:33.817Z,6892
2017-03-22T09:04:14.323Z,6788
2017-03-22T09:04:54.847Z,6644
2017-03-22T09:05:35.375Z,6456
2017-03-22T09:06:15.876Z,6164
2017-03-22T09:06:56.388Z,5972
2017-03-22T09:07:36.892Z,5940
2017-03-22T09:08:17.398Z,5856
2017-03-22T09:08:57.908Z,5776
2017-03-22T09:09:38.430Z,5664
2017-03-22T09:10:18.926Z,5752
2017-03-22T09:10:59.435Z,5784
2017-03-22T09:11:39.943Z,5836
2017-03-22T09:12:20.465Z,5780
2017-03-22T09:13:00.980Z,5656
2017-03-22T09:13:41.504Z,5612
2017-03-22T09:14:22.015Z,5688
2017-03-22T09:15:02.554Z,5752
2017-03-22T09:15:43.065Z,5704
2017-03-22T09:16:23.584Z,5588
2017-03-22T09:17:04.120Z,5484
2017-03-22T09:17:44.635Z,5448
2017-03-22T09:18:25.154Z,5336
2017-03-22T09:19:05.669Z,5228
2017-03-22T09:19:46.203Z,5168
2017-03-22T09:20:26.743Z,5100
2017-03-22T09:21:07.245Z,5076
2017-03-22T09:21:47.756Z,5052
2017-03-22T09:22:28.264Z,5080
2017-03-22T09:23:08.784Z,5088
2017-03-22T09:23:49.323Z,5092
2017-03-22T09:24:29.857Z,5084
2017-03-22T09:25:10.389Z,5084
2017-03-22T09:25:50.920Z,5148
2017-03-22T09:26:31.444Z,5204
2017-03-22T09:27:11.976Z,5232
2017-03-22T09:27:52.492Z,5212
2017-03-22T09:28:32.988Z,5160
2017-03-22T09:29:13.522Z,5164
2017-03-22T09:29:54.045Z,5224
2017-03-22T09:30:34.586Z,5352
2017-03-22T09:31:15.063Z,5480
2017-03-22T09:31:55.600Z,5540
2017-03-22T09:32:36.145Z,5628
2017-03-22T09:33:16.626Z,5720
2017-03-22T09:33:57.145Z,5808
2017-03-22T09:34:37.656Z,5788
2017-03-22T09:35:18.178Z,5776